This is the latest recevied weather packets stored in our database for station/object NQ9F. If no packets are shown the sender has not sent any weather packets the latest 10 day(s).
| Time | Temp. | Humidity | Pressure | Rain* | Wind** | Luminosity | Snow |
|---|---|---|---|---|---|---|---|
| 1777090009 | 21.11° C | 84% | 1006.2 hPa | 0 mm | - | 0 W/m² | - |
| 1777089704 | 21.11° C | 83% | 1006.1 hPa | 0 mm | - | 0 W/m² | - |
| 1777089400 | 21.11° C | 83% | 1006.1 hPa | 0 mm | - | 0 W/m² | - |
| 1777089095 | 21.67° C | 82% | 1006.1 hPa | 0 mm | - | 0 W/m² | - |
| 1777088789 | 21.67° C | 81% | 1006.1 hPa | 0 mm | - | 0 W/m² | - |
| 1777088486 | 21.67° C | 80% | 1006.1 hPa | 0 mm | - | 0 W/m² | - |
| 1777088179 | 22.22° C | 78% | 1006.1 hPa | 0 mm | - | 0 W/m² | - |
| 1777087875 | 22.78° C | 74% | 1005.9 hPa | 0 mm | - | 0 W/m² | - |
| 1777087575 | 23.89° C | 68% | 1006 hPa | 0 mm | - | 0 W/m² | - |
| 1777087269 | 23.89° C | 66% | 1005.9 hPa | 0 mm | - | 0 W/m² | - |
| 1777086964 | 23.89° C | 65% | 1005.9 hPa | 0 mm | - | 0 W/m² | - |
| 1777086659 | 24.44° C | 65% | 1005.7 hPa | 0 mm | - | 0 W/m² | - |
| 1777086355 | 23.89° C | 65% | 1005.8 hPa | 0 mm | - | 0 W/m² | - |
| 1777086051 | 22.78° C | 71% | 1005.8 hPa | 0 mm | - | 0 W/m² | - |
| 1777085748 | 22.22° C | 76% | 1005.9 hPa | 0 mm | - | 0 W/m² | - |
| 1777085443 | 22.22° C | 74% | 1005.9 hPa | 0 mm | - | 0 W/m² | - |
| 1777085140 | 23.89° C | 64% | 1005.7 hPa | 0 mm | - | 0 W/m² | - |
| 1777084835 | 25° C | 57% | 1005.8 hPa | 0 mm | - | 0 W/m² | - |
| 1777084532 | 25° C | 53% | 1005.7 hPa | 0 mm | - | 0 W/m² | - |
| 1777084227 | 25° C | 53% | 1005.6 hPa | 0 mm | - | 0 W/m² | - |
| 1777083922 | 25° C | 54% | 1005.6 hPa | 0 mm | - | 0 W/m² | - |
| 1777083619 | 25° C | 56% | 1005.3 hPa | 0 mm | - | 0 W/m² | - |
| 1777083316 | 27.22° C | 44% | 1005.4 hPa | 0 mm | - | 0 W/m² | - |
| 1777083012 | 27.78° C | 42% | 1005.3 hPa | 0 mm | - | 0 W/m² | - |
| 1777082707 | 27.78° C | 41% | 1005 hPa | 0 mm | - | 0 W/m² | - |
* Rain latest hour (hover to see other rain measurements)
** Current wind speed in m/s (hover to see current wind gust speed)